createdAt,value
2024-01-17T00:02:07.969Z,9.60
2024-01-17T00:04:34.626Z,17.20
2024-01-17T00:07:01.433Z,10.07
2024-01-17T00:09:29.441Z,13.73
2024-01-17T00:14:22.654Z,11.57
2024-01-17T00:16:49.291Z,10.15
2024-01-17T00:19:16.004Z,16.50
2024-01-17T00:21:43.433Z,12.60
2024-01-17T00:24:10.275Z,13.52
2024-01-17T00:26:38.299Z,15.40
2024-01-17T00:31:31.329Z,13.48
2024-01-17T00:33:58.016Z,10.93
2024-01-17T00:36:24.868Z,14.45
2024-01-17T00:38:51.540Z,11.77
2024-01-17T00:41:18.369Z,13.25
2024-01-17T00:43:46.569Z,13.85
2024-01-17T00:46:13.277Z,11.35
2024-01-17T00:48:40.019Z,10.38
2024-01-17T00:51:06.827Z,13.73
2024-01-17T00:53:33.569Z,11.98
2024-01-17T00:56:00.357Z,12.52
2024-01-17T00:58:27.040Z,10.93
2024-01-17T01:00:55.042Z,11.32
2024-01-17T01:03:21.729Z,13.38
2024-01-17T01:05:48.498Z,10.07
2024-01-17T01:08:15.147Z,13.02
2024-01-17T01:10:42.447Z,16.45
2024-01-17T01:13:09.052Z,10.95
2024-01-17T01:15:35.649Z,12.48
2024-01-17T01:18:04.109Z,12.52
2024-01-17T01:20:30.950Z,8.95
2024-01-17T01:22:57.647Z,14.55
2024-01-17T01:25:24.224Z,12.77
2024-01-17T01:27:50.833Z,10.90
2024-01-17T01:30:17.554Z,11.90
2024-01-17T01:32:44.352Z,9.95
2024-01-17T01:35:12.367Z,11.82
2024-01-17T01:37:38.998Z,11.93
2024-01-17T01:40:08.509Z,11.10
2024-01-17T01:42:35.575Z,14.60
2024-01-17T01:45:02.473Z,11.73
2024-01-17T01:47:29.235Z,11.93
2024-01-17T01:49:55.872Z,16.63
2024-01-17T01:52:24.024Z,10.60
2024-01-17T01:54:50.666Z,11.80
2024-01-17T01:57:17.759Z,14.35
2024-01-17T01:59:46.863Z,11.80
2024-01-17T02:02:13.765Z,11.30
2024-01-17T02:04:40.789Z,16.75
2024-01-17T02:07:08.866Z,12.73
2024-01-17T02:09:36.958Z,11.52
2024-01-17T02:12:04.358Z,10.93
2024-01-17T02:14:31.027Z,9.65
2024-01-17T02:16:57.660Z,14.60
2024-01-17T02:19:24.362Z,10.25
2024-01-17T02:21:50.990Z,10.88
2024-01-17T02:24:22.074Z,14.38
2024-01-17T02:26:48.788Z,11.30
2024-01-17T02:29:15.466Z,14.43
2024-01-17T02:31:42.859Z,8.85
2024-01-17T02:34:09.843Z,10.85
2024-01-17T02:36:36.589Z,10.65
2024-01-17T02:39:03.296Z,12.65
2024-01-17T02:41:31.302Z,9.85
2024-01-17T02:46:27.484Z,9.70
2024-01-17T02:48:54.145Z,12.73
2024-01-17T02:51:20.897Z,13.48
2024-01-17T02:53:47.542Z,10.02
2024-01-17T02:56:15.431Z,10.82
2024-01-17T03:01:10.033Z,11.27
2024-01-17T03:03:36.806Z,9.90
2024-01-17T03:06:03.669Z,11.05
2024-01-17T03:08:30.525Z,14.05
2024-01-17T03:10:57.224Z,12.15
2024-01-17T03:13:23.797Z,12.05
2024-01-17T03:15:51.724Z,10.02
2024-01-17T03:20:45.634Z,8.73
2024-01-17T03:23:12.233Z,9.98
2024-01-17T03:25:38.823Z,11.18
2024-01-17T03:28:05.683Z,9.45
2024-01-17T03:30:33.885Z,9.13
2024-01-17T03:33:01.981Z,9.90
2024-01-17T03:35:28.796Z,8.43
2024-01-17T03:37:56.582Z,10.98
2024-01-17T03:40:23.247Z,9.70
2024-01-17T03:42:49.828Z,11.25
2024-01-17T03:45:16.646Z,11.63
2024-01-17T03:47:43.329Z,11.15
2024-01-17T03:50:11.409Z,9.27
2024-01-17T03:52:38.024Z,8.95
2024-01-17T03:55:05.251Z,8.50
2024-01-17T03:57:32.918Z,7.65
2024-01-17T03:59:59.640Z,9.88
2024-01-17T04:02:26.655Z,9.93
2024-01-17T04:04:53.364Z,7.22
2024-01-17T04:07:23.448Z,8.20
2024-01-17T04:09:50.241Z,15.27
2024-01-17T04:12:16.926Z,9.02
2024-01-17T04:14:43.752Z,10.93
2024-01-17T04:17:11.589Z,11.30
2024-01-17T04:19:38.260Z,10.35
2024-01-17T04:22:05.031Z,9.32
2024-01-17T04:24:32.964Z,10.73
2024-01-17T04:29:26.046Z,9.05
2024-01-17T04:31:54.130Z,7.95
2024-01-17T04:34:21.105Z,8.25
2024-01-17T04:36:48.114Z,10.68
2024-01-17T04:39:16.206Z,8.57
2024-01-17T04:41:44.535Z,8.70
2024-01-17T04:44:11.345Z,9.10
2024-01-17T04:46:38.254Z,10.02
2024-01-17T04:49:05.209Z,11.50
2024-01-17T04:51:31.914Z,8.02
2024-01-17T04:53:59.683Z,10.38
2024-01-17T04:56:27.002Z,9.45
2024-01-17T04:58:55.212Z,11.15
2024-01-17T05:01:21.898Z,9.20
2024-01-17T05:03:48.656Z,9.10
2024-01-17T05:06:15.437Z,10.15
2024-01-17T05:08:42.380Z,8.35
2024-01-17T05:11:09.012Z,8.68
2024-01-17T05:13:35.697Z,10.43
2024-01-17T05:16:04.006Z,8.00
2024-01-17T05:18:31.401Z,10.80
2024-01-17T05:20:58.273Z,11.35
2024-01-17T05:23:24.874Z,11.65
2024-01-17T05:25:51.556Z,11.80
2024-01-17T05:28:18.122Z,12.38
2024-01-17T05:30:44.811Z,10.50
2024-01-17T05:33:12.876Z,15.30
2024-01-17T05:35:42.254Z,9.73
2024-01-17T05:38:08.853Z,12.98
2024-01-17T05:40:35.482Z,13.77
2024-01-17T05:43:02.525Z,9.52
2024-01-17T05:45:29.159Z,10.07
2024-01-17T05:47:55.943Z,10.80
2024-01-17T05:50:23.997Z,12.02
2024-01-17T05:52:50.699Z,8.57
2024-01-17T05:55:17.466Z,9.27
2024-01-17T05:57:44.334Z,9.48
2024-01-17T06:00:12.514Z,9.65
2024-01-17T06:02:41.222Z,9.05
2024-01-17T06:05:11.605Z,10.10
2024-01-17T06:07:43.888Z,9.88
2024-01-17T06:10:14.165Z,9.57
2024-01-17T06:12:41.128Z,13.70
2024-01-17T06:15:08.836Z,11.82
2024-01-17T06:17:35.608Z,11.98
2024-01-17T06:20:02.406Z,12.85
2024-01-17T06:22:29.051Z,10.85
2024-01-17T06:24:57.614Z,9.18
2024-01-17T06:27:24.509Z,10.93
2024-01-17T06:29:52.497Z,11.68
2024-01-17T06:34:46.133Z,12.05
2024-01-17T06:37:12.888Z,8.95
2024-01-17T06:39:40.026Z,16.65
2024-01-17T06:42:08.230Z,10.30
2024-01-17T06:44:35.052Z,16.00
2024-01-17T06:47:01.712Z,10.82
2024-01-17T06:49:28.504Z,9.82
2024-01-17T06:51:56.131Z,10.32
2024-01-17T06:54:22.764Z,12.35
2024-01-17T06:56:49.509Z,12.85
2024-01-17T06:59:20.163Z,14.43
2024-01-17T07:01:46.970Z,15.88
2024-01-17T07:04:13.805Z,10.77
2024-01-17T07:06:40.580Z,10.13
2024-01-17T07:09:09.461Z,11.15
2024-01-17T07:11:36.639Z,11.30
2024-01-17T07:14:04.230Z,11.40
2024-01-17T07:16:32.402Z,12.52
2024-01-17T07:21:26.903Z,8.57
2024-01-17T07:23:54.080Z,11.18
2024-01-17T07:26:20.726Z,11.05
2024-01-17T07:28:47.303Z,12.63
2024-01-17T07:31:13.950Z,15.23
2024-01-17T07:33:42.044Z,12.18
2024-01-17T07:36:09.071Z,13.50
2024-01-17T07:38:35.817Z,10.88
2024-01-17T07:41:02.997Z,11.63
2024-01-17T07:43:29.653Z,10.63
2024-01-17T07:45:56.899Z,11.82
2024-01-17T07:48:23.697Z,9.98
2024-01-17T07:50:51.897Z,8.95
2024-01-17T07:53:18.557Z,13.10
2024-01-17T07:55:45.112Z,10.32
2024-01-17T07:58:13.054Z,9.23
2024-01-17T08:00:40.016Z,13.40
2024-01-17T08:03:08.262Z,9.25
2024-01-17T08:05:35.302Z,12.32
2024-01-17T08:08:04.068Z,7.80
2024-01-17T08:10:31.341Z,8.95
2024-01-17T08:12:57.908Z,10.45
2024-01-17T08:15:24.492Z,10.02
2024-01-17T08:17:51.691Z,12.15
2024-01-17T08:20:18.546Z,9.85
2024-01-17T08:22:45.433Z,9.40
2024-01-17T08:25:14.159Z,10.23
2024-01-17T08:27:41.117Z,8.77
2024-01-17T08:30:12.002Z,11.55
2024-01-17T08:32:39.264Z,10.82
2024-01-17T08:35:08.027Z,9.68
2024-01-17T08:37:35.707Z,9.18
2024-01-17T08:40:02.291Z,12.32
2024-01-17T08:42:30.236Z,12.23
2024-01-17T08:44:56.919Z,13.23
2024-01-17T08:47:23.642Z,10.77
2024-01-17T08:49:50.921Z,10.60
2024-01-17T08:52:17.564Z,12.48
2024-01-17T08:54:44.110Z,9.52
2024-01-17T08:57:11.031Z,9.85
2024-01-17T08:59:39.128Z,11.00
2024-01-17T09:02:05.878Z,12.18
2024-01-17T09:04:33.600Z,11.52
2024-01-17T09:07:00.499Z,10.25
2024-01-17T09:09:27.458Z,10.73
2024-01-17T09:11:56.973Z,12.95
2024-01-17T09:14:25.664Z,10.93
2024-01-17T09:16:54.384Z,10.35
2024-01-17T09:19:24.742Z,11.30
2024-01-17T09:21:53.906Z,13.65
2024-01-17T09:24:22.032Z,11.20
2024-01-17T09:26:52.678Z,10.07
2024-01-17T09:29:19.932Z,10.48
2024-01-17T09:31:47.059Z,10.30
2024-01-17T09:34:15.106Z,12.82
2024-01-17T09:36:41.809Z,12.75
2024-01-17T09:39:08.495Z,11.23
2024-01-17T09:41:35.306Z,11.65
2024-01-17T09:44:02.006Z,15.32
2024-01-17T09:46:29.886Z,11.10
2024-01-17T09:51:26.826Z,9.07
2024-01-17T09:53:54.672Z,10.50
2024-01-17T09:58:52.076Z,10.45
2024-01-17T10:01:20.860Z,9.00
2024-01-17T10:03:47.866Z,12.07
2024-01-17T10:06:16.711Z,12.07
2024-01-17T10:08:45.221Z,11.80
2024-01-17T10:11:11.827Z,14.02
2024-01-17T10:13:38.589Z,8.57
2024-01-17T10:16:05.775Z,12.95
2024-01-17T10:18:32.652Z,12.27
2024-01-17T10:20:59.633Z,10.98
2024-01-17T10:23:27.693Z,8.70
2024-01-17T10:25:55.985Z,12.68
2024-01-17T10:28:23.210Z,9.43
2024-01-17T10:30:49.782Z,15.77
2024-01-17T10:33:16.534Z,16.65
2024-01-17T10:35:43.292Z,17.42
2024-01-17T10:38:09.931Z,22.23
2024-01-17T10:40:36.566Z,22.17
2024-01-17T10:43:11.356Z,13.40
2024-01-17T10:45:40.766Z,15.07
2024-01-17T10:48:07.954Z,13.75
2024-01-17T10:50:34.762Z,17.52
2024-01-17T10:53:04.525Z,20.38
2024-01-17T10:55:34.504Z,17.45
2024-01-17T10:58:01.673Z,17.67
2024-01-17T11:00:33.256Z,13.13
2024-01-17T11:03:01.486Z,12.48
2024-01-17T11:05:33.362Z,10.52
2024-01-17T11:08:00.933Z,13.35
2024-01-17T11:10:28.199Z,9.52
2024-01-17T11:12:56.239Z,13.55
2024-01-17T11:15:23.811Z,12.38
2024-01-17T11:17:54.891Z,9.63
2024-01-17T11:20:21.510Z,10.68
2024-01-17T11:22:50.562Z,11.55
2024-01-17T11:25:21.986Z,10.50
2024-01-17T11:27:52.104Z,15.60
2024-01-17T11:30:30.038Z,10.63
2024-01-17T11:33:05.611Z,12.68
2024-01-17T11:35:41.519Z,11.75
2024-01-17T11:38:12.043Z,14.95
2024-01-17T11:40:38.817Z,13.93
2024-01-17T11:43:05.901Z,11.43
2024-01-17T11:45:32.634Z,12.70
2024-01-17T11:48:12.447Z,14.60
2024-01-17T11:50:39.443Z,12.25
2024-01-17T11:53:06.218Z,12.75
2024-01-17T11:55:33.602Z,12.52
2024-01-17T11:58:01.771Z,15.13
2024-01-17T12:00:28.734Z,13.60
2024-01-17T12:03:00.834Z,13.65
2024-01-17T12:05:28.975Z,14.00
2024-01-17T12:07:55.824Z,12.35
2024-01-17T12:10:22.644Z,14.48
2024-01-17T12:12:49.195Z,12.80
2024-01-17T12:15:15.999Z,10.93
2024-01-17T12:17:45.308Z,13.75
2024-01-17T12:20:12.899Z,9.75
2024-01-17T12:22:41.031Z,16.02
2024-01-17T12:25:09.353Z,12.02
2024-01-17T12:27:35.916Z,12.38
2024-01-17T12:30:02.845Z,11.90
2024-01-17T12:32:29.580Z,14.27
2024-01-17T12:34:56.276Z,13.50
2024-01-17T12:37:23.046Z,11.63
2024-01-17T12:39:50.994Z,12.50
2024-01-17T12:42:18.079Z,10.48
2024-01-17T12:44:45.798Z,8.82
2024-01-17T12:47:12.419Z,11.73
2024-01-17T12:49:39.050Z,7.93
2024-01-17T12:52:05.829Z,10.05
2024-01-17T12:54:32.521Z,9.60
2024-01-17T12:57:00.532Z,9.38
2024-01-17T12:59:27.118Z,10.27
2024-01-17T13:01:58.702Z,8.30
2024-01-17T13:04:25.321Z,6.40
2024-01-17T13:06:53.093Z,7.40
2024-01-17T13:09:22.750Z,6.10
2024-01-17T13:11:51.247Z,7.25
2024-01-17T13:14:19.877Z,7.50
2024-01-17T13:16:46.960Z,11.20
2024-01-17T13:19:15.363Z,5.90
2024-01-17T13:21:42.421Z,6.05
2024-01-17T13:24:09.861Z,7.47
2024-01-17T13:26:37.304Z,9.07
2024-01-17T13:29:05.673Z,9.50
2024-01-17T13:31:34.683Z,6.25
2024-01-17T13:34:04.651Z,6.43
2024-01-17T13:36:32.043Z,6.30
2024-01-17T13:38:58.861Z,5.35
2024-01-17T13:41:27.221Z,5.18
2024-01-17T13:43:54.423Z,7.57
2024-01-17T13:46:21.120Z,7.38
2024-01-17T13:48:49.733Z,7.40
2024-01-17T13:51:18.184Z,8.82
2024-01-17T13:56:11.978Z,6.60
2024-01-17T13:58:38.956Z,8.27
2024-01-17T14:01:06.985Z,5.93
2024-01-17T14:03:34.804Z,6.60
2024-01-17T14:08:30.678Z,6.10
2024-01-17T14:10:57.756Z,6.05
2024-01-17T14:13:24.470Z,6.47
2024-01-17T14:15:51.274Z,10.00
2024-01-17T14:18:18.684Z,6.68
2024-01-17T14:20:45.487Z,10.25
2024-01-17T14:23:13.949Z,7.03
2024-01-17T14:25:40.521Z,6.63
2024-01-17T14:28:08.804Z,5.85
2024-01-17T14:30:35.723Z,5.88
2024-01-17T14:33:05.392Z,9.23
2024-01-17T14:35:35.150Z,6.00
2024-01-17T14:38:03.935Z,6.07
2024-01-17T14:40:31.872Z,7.28
2024-01-17T14:42:59.133Z,8.45
2024-01-17T14:45:25.862Z,7.20
2024-01-17T14:47:52.587Z,5.88
2024-01-17T14:50:19.328Z,8.48
2024-01-17T14:52:46.784Z,8.60
2024-01-17T14:55:13.757Z,8.23
2024-01-17T14:57:41.947Z,8.35
2024-01-17T15:00:19.187Z,8.20
2024-01-17T15:02:47.293Z,10.15
2024-01-17T15:05:14.441Z,5.68
2024-01-17T15:07:42.059Z,7.68
2024-01-17T15:10:11.805Z,10.43
2024-01-17T15:12:38.479Z,7.28
2024-01-17T15:15:08.561Z,6.82
2024-01-17T15:17:36.188Z,7.88
2024-01-17T15:20:03.158Z,8.00
2024-01-17T15:22:31.441Z,8.43
2024-01-17T15:24:58.480Z,8.70
2024-01-17T15:27:25.201Z,10.32
2024-01-17T15:29:52.841Z,9.48
2024-01-17T15:32:21.019Z,11.07
2024-01-17T15:34:50.984Z,9.65
2024-01-17T15:37:18.329Z,10.27
2024-01-17T15:39:49.489Z,10.27
2024-01-17T15:42:17.268Z,9.30
2024-01-17T15:47:10.750Z,10.52
2024-01-17T15:49:38.739Z,10.85
2024-01-17T15:52:05.931Z,11.60
2024-01-17T15:54:32.604Z,14.57
2024-01-17T15:56:59.268Z,11.75
2024-01-17T15:59:25.927Z,17.48
2024-01-17T16:01:52.997Z,13.45
2024-01-17T16:04:19.596Z,14.82
2024-01-17T16:06:47.664Z,14.35
2024-01-17T16:09:14.859Z,14.60
2024-01-17T16:11:41.636Z,11.40
2024-01-17T16:14:08.368Z,16.13
2024-01-17T16:16:35.086Z,9.55
2024-01-17T16:19:02.685Z,13.55
2024-01-17T16:21:29.892Z,14.68
2024-01-17T16:23:59.886Z,13.20
2024-01-17T16:26:26.635Z,15.05
2024-01-17T16:28:53.260Z,16.23
2024-01-17T16:31:19.816Z,19.90
2024-01-17T16:33:46.641Z,11.32
2024-01-17T16:36:14.480Z,11.70
2024-01-17T16:41:11.057Z,13.52
2024-01-17T16:43:37.967Z,14.63
2024-01-17T16:46:05.213Z,13.20
2024-01-17T16:48:34.125Z,11.93
2024-01-17T16:51:03.468Z,12.90
2024-01-17T16:53:31.447Z,12.18
2024-01-17T16:55:58.084Z,12.35
2024-01-17T16:58:26.068Z,18.73
2024-01-17T17:00:55.648Z,15.52
2024-01-17T17:03:23.415Z,18.58
2024-01-17T17:08:20.360Z,15.18
2024-01-17T17:10:46.937Z,14.77
2024-01-17T17:13:13.560Z,19.38
2024-01-17T17:15:41.760Z,16.08
2024-01-17T17:18:12.818Z,14.75
2024-01-17T17:20:40.424Z,19.25
2024-01-17T17:23:07.471Z,17.05
2024-01-17T17:25:34.300Z,18.13
2024-01-17T17:28:00.849Z,16.55
2024-01-17T17:30:27.552Z,19.20
2024-01-17T17:32:55.624Z,18.73
2024-01-17T17:35:22.272Z,18.80
2024-01-17T17:37:48.944Z,20.00
2024-01-17T17:40:15.767Z,18.35
2024-01-17T17:42:42.575Z,21.17
2024-01-17T17:45:10.548Z,20.50
2024-01-17T17:47:37.297Z,19.08
2024-01-17T17:50:11.998Z,18.63
2024-01-17T17:52:38.652Z,19.20
2024-01-17T17:55:06.271Z,22.17
2024-01-17T17:57:32.923Z,20.88
2024-01-17T17:59:59.990Z,21.42
2024-01-17T18:02:26.812Z,21.95
2024-01-17T18:04:53.410Z,21.52
2024-01-17T18:07:21.319Z,18.23
2024-01-17T18:09:49.600Z,17.52
2024-01-17T18:12:17.249Z,16.42
2024-01-17T18:14:43.947Z,18.13
2024-01-17T18:17:13.017Z,24.40
2024-01-17T18:19:39.704Z,19.65
2024-01-17T18:22:06.329Z,20.85
2024-01-17T18:24:34.389Z,20.63
2024-01-17T18:27:01.057Z,19.55
2024-01-17T18:29:28.032Z,23.85
2024-01-17T18:31:54.663Z,21.48
2024-01-17T18:34:23.875Z,18.88
2024-01-17T18:36:50.583Z,18.35
2024-01-17T18:39:18.862Z,19.45
2024-01-17T18:41:46.889Z,18.42
2024-01-17T18:44:13.427Z,21.58
2024-01-17T18:46:41.855Z,25.58
2024-01-17T18:49:08.667Z,23.45
2024-01-17T18:51:35.716Z,23.63
2024-01-17T18:54:02.384Z,21.77
2024-01-17T18:56:31.248Z,21.27
2024-01-17T18:59:00.218Z,20.05
2024-01-17T19:01:32.317Z,19.05
2024-01-17T19:03:59.031Z,24.63
2024-01-17T19:06:28.451Z,20.52
2024-01-17T19:08:55.521Z,18.38
2024-01-17T19:11:22.315Z,22.00
2024-01-17T19:13:49.119Z,19.98
2024-01-17T19:16:17.129Z,26.70
2024-01-17T19:18:44.007Z,31.05
2024-01-17T19:21:10.847Z,29.85
2024-01-17T19:23:38.672Z,24.15
2024-01-17T19:26:07.852Z,20.00
2024-01-17T19:28:34.440Z,23.20
2024-01-17T19:31:01.061Z,17.90
2024-01-17T19:33:32.328Z,20.70
2024-01-17T19:35:59.007Z,20.48
2024-01-17T19:38:26.516Z,18.10
2024-01-17T19:40:53.329Z,18.40
2024-01-17T19:43:19.997Z,21.50
2024-01-17T19:45:46.630Z,21.90
2024-01-17T19:48:13.488Z,20.45
2024-01-17T19:50:43.823Z,20.33
2024-01-17T19:53:10.462Z,20.23
2024-01-17T19:55:37.046Z,19.08
2024-01-17T19:58:03.958Z,24.52
2024-01-17T20:00:31.889Z,17.25
2024-01-17T20:02:59.032Z,16.02
2024-01-17T20:05:28.634Z,20.95
2024-01-17T20:07:56.549Z,19.40
2024-01-17T20:10:23.192Z,17.08
2024-01-17T20:12:50.341Z,17.52
2024-01-17T20:15:18.716Z,17.67
2024-01-17T20:17:45.446Z,16.55
2024-01-17T20:20:12.439Z,18.40
2024-01-17T20:22:39.013Z,17.45
2024-01-17T20:25:14.613Z,19.90
2024-01-17T20:27:41.753Z,17.67
2024-01-17T20:30:09.394Z,18.17
2024-01-17T20:32:36.854Z,18.25
2024-01-17T20:35:04.049Z,16.85
2024-01-17T20:37:30.748Z,19.33
2024-01-17T20:39:57.301Z,19.95
2024-01-17T20:42:25.364Z,18.05
2024-01-17T20:44:52.045Z,19.85
2024-01-17T20:47:18.689Z,19.83
2024-01-17T20:49:46.429Z,19.90
2024-01-17T20:54:42.954Z,16.35
2024-01-17T20:57:12.288Z,19.50
2024-01-17T20:59:40.672Z,18.48
2024-01-17T21:02:07.201Z,18.88
2024-01-17T21:04:33.808Z,17.23
2024-01-17T21:07:00.731Z,21.40
2024-01-17T21:09:27.573Z,21.17
2024-01-17T21:11:54.748Z,16.73
2024-01-17T21:14:21.494Z,18.67
2024-01-17T21:16:49.369Z,19.83
2024-01-17T21:21:42.913Z,21.38
2024-01-17T21:24:09.811Z,22.65
2024-01-17T21:26:39.681Z,17.20
2024-01-17T21:29:07.349Z,20.10
2024-01-17T21:31:37.518Z,22.40
2024-01-17T21:34:07.982Z,20.55
2024-01-17T21:36:35.416Z,15.98
2024-01-17T21:39:04.249Z,21.25
2024-01-17T21:41:31.412Z,23.48
2024-01-17T21:43:57.994Z,27.92
2024-01-17T21:46:25.019Z,20.10
2024-01-17T21:48:51.858Z,25.30
2024-01-17T21:51:20.279Z,21.70
2024-01-17T21:53:47.951Z,21.70
2024-01-17T21:56:14.840Z,21.02
2024-01-17T21:58:41.581Z,23.10
2024-01-17T22:01:09.360Z,19.83
2024-01-17T22:03:37.382Z,20.20
2024-01-17T22:06:05.025Z,25.10
2024-01-17T22:08:44.320Z,20.50
2024-01-17T22:11:18.889Z,23.08
2024-01-17T22:13:45.472Z,21.52
2024-01-17T22:16:12.178Z,21.40
2024-01-17T22:18:38.896Z,19.40
2024-01-17T22:21:05.852Z,19.33
2024-01-17T22:23:33.928Z,22.92
2024-01-17T22:26:00.544Z,23.65
2024-01-17T22:28:27.090Z,25.75
2024-01-17T22:30:53.658Z,23.40
2024-01-17T22:33:20.369Z,22.77
2024-01-17T22:35:47.121Z,20.50
2024-01-17T22:38:13.696Z,24.23
2024-01-17T22:40:42.149Z,19.98
2024-01-17T22:43:08.790Z,20.17
2024-01-17T22:45:35.548Z,19.85
2024-01-17T22:48:04.256Z,17.02
2024-01-17T22:50:33.212Z,18.50
2024-01-17T22:53:03.113Z,18.55
2024-01-17T22:55:30.612Z,20.98
2024-01-17T22:57:58.645Z,19.42
2024-01-17T23:00:27.092Z,21.02
2024-01-17T23:02:54.273Z,17.52
2024-01-17T23:05:22.473Z,22.30
2024-01-17T23:07:57.454Z,20.08
2024-01-17T23:10:32.251Z,19.33
2024-01-17T23:13:00.355Z,18.13
2024-01-17T23:15:27.233Z,18.55
2024-01-17T23:17:54.157Z,17.92
2024-01-17T23:20:20.995Z,20.55
2024-01-17T23:22:47.662Z,17.38
2024-01-17T23:25:14.341Z,20.63
2024-01-17T23:27:40.936Z,22.52
2024-01-17T23:30:09.903Z,20.90
2024-01-17T23:32:36.653Z,18.27
2024-01-17T23:35:03.490Z,19.63
2024-01-17T23:37:30.156Z,20.90
2024-01-17T23:39:56.683Z,16.67
2024-01-17T23:42:23.287Z,17.80
2024-01-17T23:44:50.116Z,17.40
2024-01-17T23:47:18.125Z,17.70
2024-01-17T23:49:44.820Z,19.60
2024-01-17T23:52:11.447Z,18.85
2024-01-17T23:54:38.073Z,17.17
2024-01-17T23:57:05.310Z,15.30
2024-01-17T23:59:31.924Z,14.00
